sensor_id;sensor_type;location;lat;lon;timestamp;temperature;humidity
27384;DHT22;14851;51.166;4.760;2023-11-22T00:00:59;5.90;99.90
27384;DHT22;14851;51.166;4.760;2023-11-22T00:03:25;5.90;99.90
27384;DHT22;14851;51.166;4.760;2023-11-22T00:05:51;5.80;99.90
27384;DHT22;14851;51.166;4.760;2023-11-22T00:08:17;5.80;99.90
27384;DHT22;14851;51.166;4.760;2023-11-22T00:10:43;5.80;99.90
27384;DHT22;14851;51.166;4.760;2023-11-22T00:13:10;5.80;99.90
27384;DHT22;14851;51.166;4.760;2023-11-22T00:15:37;5.70;99.90
27384;DHT22;14851;51.166;4.760;2023-11-22T00:18:03;5.70;99.90
27384;DHT22;14851;51.166;4.760;2023-11-22T00:20:30;5.70;99.90
27384;DHT22;14851;51.166;4.760;2023-11-22T00:22:56;5.60;99.90
27384;DHT22;14851;51.166;4.760;2023-11-22T00:25:22;5.60;99.90
27384;DHT22;14851;51.166;4.760;2023-11-22T00:27:48;5.50;99.90
27384;DHT22;14851;51.166;4.760;2023-11-22T00:30:14;5.50;99.90
27384;DHT22;14851;51.166;4.760;2023-11-22T00:32:40;5.50;99.90
27384;DHT22;14851;51.166;4.760;2023-11-22T00:35:08;5.60;99.90
27384;DHT22;14851;51.166;4.760;2023-11-22T00:37:35;5.50;99.90
27384;DHT22;14851;51.166;4.760;2023-11-22T00:40:03;5.50;99.90
27384;DHT22;14851;51.166;4.760;2023-11-22T00:42:42;5.40;99.90
27384;DHT22;14851;51.166;4.760;2023-11-22T00:45:10;5.40;99.90
27384;DHT22;14851;51.166;4.760;2023-11-22T00:47:37;5.40;99.90
27384;DHT22;14851;51.166;4.760;2023-11-22T00:50:03;5.40;99.90
27384;DHT22;14851;51.166;4.760;2023-11-22T00:52:30;5.30;99.90
27384;DHT22;14851;51.166;4.760;2023-11-22T00:54:59;5.30;99.90
27384;DHT22;14851;51.166;4.760;2023-11-22T00:57:31;5.20;99.90
27384;DHT22;14851;51.166;4.760;2023-11-22T00:59:56;5.20;99.90
27384;DHT22;14851;51.166;4.760;2023-11-22T01:02:24;5.20;99.90
27384;DHT22;14851;51.166;4.760;2023-11-22T01:04:50;5.10;99.90
27384;DHT22;14851;51.166;4.760;2023-11-22T01:07:16;5.00;99.90
27384;DHT22;14851;51.166;4.760;2023-11-22T01:09:42;5.00;99.90
27384;DHT22;14851;51.166;4.760;2023-11-22T01:12:08;4.90;99.90
27384;DHT22;14851;51.166;4.760;2023-11-22T01:14:34;4.90;99.90
27384;DHT22;14851;51.166;4.760;2023-11-22T01:17:00;4.90;99.90
27384;DHT22;14851;51.166;4.760;2023-11-22T01:19:26;4.90;99.90
27384;DHT22;14851;51.166;4.760;2023-11-22T01:21:52;4.90;99.90
27384;DHT22;14851;51.166;4.760;2023-11-22T01:24:18;4.90;99.90
27384;DHT22;14851;51.166;4.760;2023-11-22T01:26:43;4.90;99.90
27384;DHT22;14851;51.166;4.760;2023-11-22T01:29:09;4.90;99.90
27384;DHT22;14851;51.166;4.760;2023-11-22T01:31:37;4.90;99.90
27384;DHT22;14851;51.166;4.760;2023-11-22T01:34:03;4.80;99.90
27384;DHT22;14851;51.166;4.760;2023-11-22T01:36:31;4.80;99.90
27384;DHT22;14851;51.166;4.760;2023-11-22T01:38:59;4.80;99.90
27384;DHT22;14851;51.166;4.760;2023-11-22T01:41:25;4.70;99.90
27384;DHT22;14851;51.166;4.760;2023-11-22T01:43:51;4.70;99.90
27384;DHT22;14851;51.166;4.760;2023-11-22T01:46:24;4.60;99.90
27384;DHT22;14851;51.166;4.760;2023-11-22T01:48:52;4.70;99.90
27384;DHT22;14851;51.166;4.760;2023-11-22T01:51:20;4.60;99.90
27384;DHT22;14851;51.166;4.760;2023-11-22T01:53:47;4.60;99.90
27384;DHT22;14851;51.166;4.760;2023-11-22T01:56:14;4.60;99.90
27384;DHT22;14851;51.166;4.760;2023-11-22T01:58:42;4.50;99.90
27384;DHT22;14851;51.166;4.760;2023-11-22T02:01:09;4.50;99.90
27384;DHT22;14851;51.166;4.760;2023-11-22T02:03:38;4.50;99.90
27384;DHT22;14851;51.166;4.760;2023-11-22T02:06:09;4.40;99.90
27384;DHT22;14851;51.166;4.760;2023-11-22T02:08:35;4.40;99.90
27384;DHT22;14851;51.166;4.760;2023-11-22T02:11:04;4.40;99.90
27384;DHT22;14851;51.166;4.760;2023-11-22T02:13:36;4.30;99.90
27384;DHT22;14851;51.166;4.760;2023-11-22T02:16:02;4.30;99.90
27384;DHT22;14851;51.166;4.760;2023-11-22T02:18:29;4.30;99.90
27384;DHT22;14851;51.166;4.760;2023-11-22T02:20:56;4.30;99.90
27384;DHT22;14851;51.166;4.760;2023-11-22T02:23:22;4.30;99.90
27384;DHT22;14851;51.166;4.760;2023-11-22T02:25:48;4.30;99.90
27384;DHT22;14851;51.166;4.760;2023-11-22T02:28:14;4.30;99.90
27384;DHT22;14851;51.166;4.760;2023-11-22T02:30:40;4.20;99.90
27384;DHT22;14851;51.166;4.760;2023-11-22T02:33:07;4.10;99.90
27384;DHT22;14851;51.166;4.760;2023-11-22T02:35:33;4.10;99.90
27384;DHT22;14851;51.166;4.760;2023-11-22T02:37:59;4.10;99.90
27384;DHT22;14851;51.166;4.760;2023-11-22T02:40:25;4.10;99.90
27384;DHT22;14851;51.166;4.760;2023-11-22T02:42:54;4.10;99.90
27384;DHT22;14851;51.166;4.760;2023-11-22T02:45:26;4.00;99.90
27384;DHT22;14851;51.166;4.760;2023-11-22T02:47:54;4.00;99.90
27384;DHT22;14851;51.166;4.760;2023-11-22T02:50:20;4.00;99.90
27384;DHT22;14851;51.166;4.760;2023-11-22T02:52:53;4.00;99.90
27384;DHT22;14851;51.166;4.760;2023-11-22T02:55:19;3.90;99.90
27384;DHT22;14851;51.166;4.760;2023-11-22T02:57:45;3.90;99.90
27384;DHT22;14851;51.166;4.760;2023-11-22T03:00:13;3.80;99.90
27384;DHT22;14851;51.166;4.760;2023-11-22T03:02:41;3.80;99.90
27384;DHT22;14851;51.166;4.760;2023-11-22T03:05:10;3.80;99.90
27384;DHT22;14851;51.166;4.760;2023-11-22T03:07:37;3.80;99.90
27384;DHT22;14851;51.166;4.760;2023-11-22T03:10:03;3.70;99.90
27384;DHT22;14851;51.166;4.760;2023-11-22T03:12:31;3.70;99.90
27384;DHT22;14851;51.166;4.760;2023-11-22T03:15:00;3.70;99.90
27384;DHT22;14851;51.166;4.760;2023-11-22T03:17:29;3.80;99.90
27384;DHT22;14851;51.166;4.760;2023-11-22T03:19:58;3.80;99.90
27384;DHT22;14851;51.166;4.760;2023-11-22T03:22:25;3.80;99.90
27384;DHT22;14851;51.166;4.760;2023-11-22T03:24:52;3.80;99.90
27384;DHT22;14851;51.166;4.760;2023-11-22T03:27:19;3.70;99.90
27384;DHT22;14851;51.166;4.760;2023-11-22T03:29:49;3.70;99.90
27384;DHT22;14851;51.166;4.760;2023-11-22T03:32:15;3.70;99.90
27384;DHT22;14851;51.166;4.760;2023-11-22T03:34:40;3.70;99.90
27384;DHT22;14851;51.166;4.760;2023-11-22T03:37:06;3.70;99.90
27384;DHT22;14851;51.166;4.760;2023-11-22T03:39:32;3.60;99.90
27384;DHT22;14851;51.166;4.760;2023-11-22T03:41:59;3.60;99.90
27384;DHT22;14851;51.166;4.760;2023-11-22T03:44:25;3.50;99.90
27384;DHT22;14851;51.166;4.760;2023-11-22T03:46:51;3.50;99.90
27384;DHT22;14851;51.166;4.760;2023-11-22T03:49:17;3.50;99.90
27384;DHT22;14851;51.166;4.760;2023-11-22T03:51:47;3.40;99.90
27384;DHT22;14851;51.166;4.760;2023-11-22T03:54:13;3.40;99.90
27384;DHT22;14851;51.166;4.760;2023-11-22T03:56:41;3.40;99.90
27384;DHT22;14851;51.166;4.760;2023-11-22T03:59:07;3.40;99.90
27384;DHT22;14851;51.166;4.760;2023-11-22T04:01:33;3.30;99.90
27384;DHT22;14851;51.166;4.760;2023-11-22T04:03:59;3.30;99.90
27384;DHT22;14851;51.166;4.760;2023-11-22T04:06:25;3.30;99.90
27384;DHT22;14851;51.166;4.760;2023-11-22T04:08:51;3.30;99.90
27384;DHT22;14851;51.166;4.760;2023-11-22T04:11:18;3.30;99.90
27384;DHT22;14851;51.166;4.760;2023-11-22T04:13:44;3.30;99.90
27384;DHT22;14851;51.166;4.760;2023-11-22T04:16:10;3.30;99.90
27384;DHT22;14851;51.166;4.760;2023-11-22T04:18:42;3.30;99.90
27384;DHT22;14851;51.166;4.760;2023-11-22T04:21:08;3.30;99.90
27384;DHT22;14851;51.166;4.760;2023-11-22T04:23:34;3.30;99.90
27384;DHT22;14851;51.166;4.760;2023-11-22T04:26:00;3.40;99.90
27384;DHT22;14851;51.166;4.760;2023-11-22T04:28:28;3.40;99.90
27384;DHT22;14851;51.166;4.760;2023-11-22T04:30:55;3.40;99.90
27384;DHT22;14851;51.166;4.760;2023-11-22T04:33:22;3.40;99.90
27384;DHT22;14851;51.166;4.760;2023-11-22T04:35:49;3.40;99.90
27384;DHT22;14851;51.166;4.760;2023-11-22T04:38:17;3.40;99.90
27384;DHT22;14851;51.166;4.760;2023-11-22T04:40:44;3.30;99.90
27384;DHT22;14851;51.166;4.760;2023-11-22T04:43:10;3.40;99.90
27384;DHT22;14851;51.166;4.760;2023-11-22T04:45:36;3.30;99.90
27384;DHT22;14851;51.166;4.760;2023-11-22T04:48:03;3.30;99.90
27384;DHT22;14851;51.166;4.760;2023-11-22T04:50:29;3.30;99.90
27384;DHT22;14851;51.166;4.760;2023-11-22T04:52:55;3.30;99.90
27384;DHT22;14851;51.166;4.760;2023-11-22T04:55:21;3.30;99.90
27384;DHT22;14851;51.166;4.760;2023-11-22T04:57:50;3.20;99.90
27384;DHT22;14851;51.166;4.760;2023-11-22T05:00:16;3.30;99.90
27384;DHT22;14851;51.166;4.760;2023-11-22T05:02:43;3.20;99.90
27384;DHT22;14851;51.166;4.760;2023-11-22T05:05:09;3.20;99.90
27384;DHT22;14851;51.166;4.760;2023-11-22T05:07:38;3.20;99.90
27384;DHT22;14851;51.166;4.760;2023-11-22T05:10:06;3.20;99.90
27384;DHT22;14851;51.166;4.760;2023-11-22T05:12:34;3.20;99.90
27384;DHT22;14851;51.166;4.760;2023-11-22T05:15:04;3.20;99.90
27384;DHT22;14851;51.166;4.760;2023-11-22T05:17:30;3.20;99.90
27384;DHT22;14851;51.166;4.760;2023-11-22T05:19:59;3.20;99.90
27384;DHT22;14851;51.166;4.760;2023-11-22T05:22:25;3.20;99.90
27384;DHT22;14851;51.166;4.760;2023-11-22T05:24:50;3.10;99.90
27384;DHT22;14851;51.166;4.760;2023-11-22T05:27:17;3.20;99.90
27384;DHT22;14851;51.166;4.760;2023-11-22T05:29:43;3.20;99.90
27384;DHT22;14851;51.166;4.760;2023-11-22T05:32:09;3.20;99.90
27384;DHT22;14851;51.166;4.760;2023-11-22T05:34:35;3.20;99.90
27384;DHT22;14851;51.166;4.760;2023-11-22T05:37:03;3.20;99.90
27384;DHT22;14851;51.166;4.760;2023-11-22T05:39:31;3.10;99.90
27384;DHT22;14851;51.166;4.760;2023-11-22T05:41:57;3.20;99.90
27384;DHT22;14851;51.166;4.760;2023-11-22T05:44:23;3.20;99.90
27384;DHT22;14851;51.166;4.760;2023-11-22T05:46:51;3.20;99.90
27384;DHT22;14851;51.166;4.760;2023-11-22T05:49:17;3.20;99.90
27384;DHT22;14851;51.166;4.760;2023-11-22T05:51:43;3.10;99.90
27384;DHT22;14851;51.166;4.760;2023-11-22T05:54:11;3.20;99.90
27384;DHT22;14851;51.166;4.760;2023-11-22T05:56:38;3.20;99.90
27384;DHT22;14851;51.166;4.760;2023-11-22T05:59:04;3.20;99.90
27384;DHT22;14851;51.166;4.760;2023-11-22T06:01:32;3.20;99.90
27384;DHT22;14851;51.166;4.760;2023-11-22T06:03:59;3.20;99.90
27384;DHT22;14851;51.166;4.760;2023-11-22T06:06:25;3.20;99.90
27384;DHT22;14851;51.166;4.760;2023-11-22T06:08:51;3.20;99.90
27384;DHT22;14851;51.166;4.760;2023-11-22T06:11:19;3.20;99.90
27384;DHT22;14851;51.166;4.760;2023-11-22T06:13:46;3.30;99.90
27384;DHT22;14851;51.166;4.760;2023-11-22T06:16:13;3.30;99.90
27384;DHT22;14851;51.166;4.760;2023-11-22T06:18:40;3.40;99.90
27384;DHT22;14851;51.166;4.760;2023-11-22T06:21:10;3.40;99.90
27384;DHT22;14851;51.166;4.760;2023-11-22T06:23:35;3.40;99.90
27384;DHT22;14851;51.166;4.760;2023-11-22T06:26:02;3.40;99.90
27384;DHT22;14851;51.166;4.760;2023-11-22T06:28:32;3.40;99.90
27384;DHT22;14851;51.166;4.760;2023-11-22T06:31:00;3.40;99.90
27384;DHT22;14851;51.166;4.760;2023-11-22T06:33:26;3.50;99.90
27384;DHT22;14851;51.166;4.760;2023-11-22T06:35:55;3.50;99.90
27384;DHT22;14851;51.166;4.760;2023-11-22T06:38:21;3.50;99.90
27384;DHT22;14851;51.166;4.760;2023-11-22T06:40:47;3.50;99.90
27384;DHT22;14851;51.166;4.760;2023-11-22T06:43:14;3.60;99.90
27384;DHT22;14851;51.166;4.760;2023-11-22T06:45:42;3.60;99.90
27384;DHT22;14851;51.166;4.760;2023-11-22T06:48:08;3.60;99.90
27384;DHT22;14851;51.166;4.760;2023-11-22T06:50:34;3.60;99.90
27384;DHT22;14851;51.166;4.760;2023-11-22T06:53:00;3.70;99.90
27384;DHT22;14851;51.166;4.760;2023-11-22T06:55:28;3.70;99.90
27384;DHT22;14851;51.166;4.760;2023-11-22T06:57:58;3.70;99.90
27384;DHT22;14851;51.166;4.760;2023-11-22T07:00:27;3.70;99.90
27384;DHT22;14851;51.166;4.760;2023-11-22T07:02:54;3.80;99.90
27384;DHT22;14851;51.166;4.760;2023-11-22T07:05:19;3.80;99.90
27384;DHT22;14851;51.166;4.760;2023-11-22T07:07:45;3.80;99.90
27384;DHT22;14851;51.166;4.760;2023-11-22T07:10:17;3.80;99.90
27384;DHT22;14851;51.166;4.760;2023-11-22T07:12:51;3.80;99.90
27384;DHT22;14851;51.166;4.760;2023-11-22T07:15:17;3.80;99.90
27384;DHT22;14851;51.166;4.760;2023-11-22T07:17:42;3.90;99.90
27384;DHT22;14851;51.166;4.760;2023-11-22T07:20:08;3.90;99.90
27384;DHT22;14851;51.166;4.760;2023-11-22T07:22:38;3.90;99.90
27384;DHT22;14851;51.166;4.760;2023-11-22T07:25:05;3.90;99.90
27384;DHT22;14851;51.166;4.760;2023-11-22T07:27:32;4.00;99.90
27384;DHT22;14851;51.166;4.760;2023-11-22T07:30:00;4.00;99.90
27384;DHT22;14851;51.166;4.760;2023-11-22T07:32:29;4.00;99.90
27384;DHT22;14851;51.166;4.760;2023-11-22T07:34:55;4.00;99.90
27384;DHT22;14851;51.166;4.760;2023-11-22T07:37:21;4.10;99.90
27384;DHT22;14851;51.166;4.760;2023-11-22T07:39:47;4.10;99.90
27384;DHT22;14851;51.166;4.760;2023-11-22T07:42:15;4.10;99.90
27384;DHT22;14851;51.166;4.760;2023-11-22T07:44:41;4.10;99.90
27384;DHT22;14851;51.166;4.760;2023-11-22T07:47:08;4.20;99.90
27384;DHT22;14851;51.166;4.760;2023-11-22T07:49:34;4.20;99.90
27384;DHT22;14851;51.166;4.760;2023-11-22T07:52:04;4.20;99.90
27384;DHT22;14851;51.166;4.760;2023-11-22T07:54:31;4.20;99.90
27384;DHT22;14851;51.166;4.760;2023-11-22T07:56:59;4.20;99.90
27384;DHT22;14851;51.166;4.760;2023-11-22T07:59:26;4.20;99.90
27384;DHT22;14851;51.166;4.760;2023-11-22T08:01:51;4.30;99.90
27384;DHT22;14851;51.166;4.760;2023-11-22T08:04:21;4.30;99.90
27384;DHT22;14851;51.166;4.760;2023-11-22T08:06:49;4.30;99.90
27384;DHT22;14851;51.166;4.760;2023-11-22T08:09:15;4.30;99.90
27384;DHT22;14851;51.166;4.760;2023-11-22T08:11:42;4.30;99.90
27384;DHT22;14851;51.166;4.760;2023-11-22T08:14:09;4.30;99.90
27384;DHT22;14851;51.166;4.760;2023-11-22T08:16:35;4.40;99.90
27384;DHT22;14851;51.166;4.760;2023-11-22T08:19:04;4.40;99.90
27384;DHT22;14851;51.166;4.760;2023-11-22T08:21:31;4.50;99.90
27384;DHT22;14851;51.166;4.760;2023-11-22T08:23:58;4.50;99.90
27384;DHT22;14851;51.166;4.760;2023-11-22T08:26:25;4.50;99.90
27384;DHT22;14851;51.166;4.760;2023-11-22T08:28:54;4.50;99.90
27384;DHT22;14851;51.166;4.760;2023-11-22T08:31:21;4.60;99.90
27384;DHT22;14851;51.166;4.760;2023-11-22T08:33:55;4.60;99.90
27384;DHT22;14851;51.166;4.760;2023-11-22T08:36:22;4.60;99.90
27384;DHT22;14851;51.166;4.760;2023-11-22T08:38:49;4.70;99.90
27384;DHT22;14851;51.166;4.760;2023-11-22T08:41:15;4.70;99.90
27384;DHT22;14851;51.166;4.760;2023-11-22T08:43:42;4.70;99.90
27384;DHT22;14851;51.166;4.760;2023-11-22T08:46:08;4.80;99.90
27384;DHT22;14851;51.166;4.760;2023-11-22T08:48:35;4.80;99.90
27384;DHT22;14851;51.166;4.760;2023-11-22T08:51:01;4.80;99.90
27384;DHT22;14851;51.166;4.760;2023-11-22T08:53:29;4.80;99.90
27384;DHT22;14851;51.166;4.760;2023-11-22T08:55:55;4.80;99.90
27384;DHT22;14851;51.166;4.760;2023-11-22T08:58:23;4.80;99.90
27384;DHT22;14851;51.166;4.760;2023-11-22T09:00:49;4.80;99.90
27384;DHT22;14851;51.166;4.760;2023-11-22T09:03:16;4.80;99.90
27384;DHT22;14851;51.166;4.760;2023-11-22T09:05:45;4.80;99.90
27384;DHT22;14851;51.166;4.760;2023-11-22T09:08:16;4.80;99.90
27384;DHT22;14851;51.166;4.760;2023-11-22T09:10:45;4.80;99.90
27384;DHT22;14851;51.166;4.760;2023-11-22T09:13:12;4.80;99.90
27384;DHT22;14851;51.166;4.760;2023-11-22T09:15:43;4.80;99.90
27384;DHT22;14851;51.166;4.760;2023-11-22T09:18:11;4.80;99.90
27384;DHT22;14851;51.166;4.760;2023-11-22T09:20:43;4.80;99.90
27384;DHT22;14851;51.166;4.760;2023-11-22T09:23:14;4.80;99.90
27384;DHT22;14851;51.166;4.760;2023-11-22T09:25:46;4.90;99.90
27384;DHT22;14851;51.166;4.760;2023-11-22T09:28:14;4.90;99.90
27384;DHT22;14851;51.166;4.760;2023-11-22T09:30:43;4.90;99.90
27384;DHT22;14851;51.166;4.760;2023-11-22T09:33:15;4.90;99.90
27384;DHT22;14851;51.166;4.760;2023-11-22T09:35:43;5.00;99.90
27384;DHT22;14851;51.166;4.760;2023-11-22T09:38:13;4.90;99.90
27384;DHT22;14851;51.166;4.760;2023-11-22T09:40:47;4.90;99.90
27384;DHT22;14851;51.166;4.760;2023-11-22T09:43:30;5.00;99.90
27384;DHT22;14851;51.166;4.760;2023-11-22T09:45:58;5.00;99.90
27384;DHT22;14851;51.166;4.760;2023-11-22T09:48:24;5.00;99.90
27384;DHT22;14851;51.166;4.760;2023-11-22T09:51:03;5.10;99.90
27384;DHT22;14851;51.166;4.760;2023-11-22T09:53:40;5.10;99.90
27384;DHT22;14851;51.166;4.760;2023-11-22T09:56:08;5.10;99.90
27384;DHT22;14851;51.166;4.760;2023-11-22T09:58:37;5.10;99.90
27384;DHT22;14851;51.166;4.760;2023-11-22T10:01:11;5.10;99.90
27384;DHT22;14851;51.166;4.760;2023-11-22T10:03:39;5.10;99.90
27384;DHT22;14851;51.166;4.760;2023-11-22T10:06:05;5.10;99.90
27384;DHT22;14851;51.166;4.760;2023-11-22T10:08:32;5.20;99.90
27384;DHT22;14851;51.166;4.760;2023-11-22T10:10:59;5.20;99.90
27384;DHT22;14851;51.166;4.760;2023-11-22T10:13:26;5.20;99.90
27384;DHT22;14851;51.166;4.760;2023-11-22T10:15:53;5.20;99.90
27384;DHT22;14851;51.166;4.760;2023-11-22T10:18:21;5.20;99.90
27384;DHT22;14851;51.166;4.760;2023-11-22T10:20:49;5.20;99.90
27384;DHT22;14851;51.166;4.760;2023-11-22T10:23:17;5.30;99.90
27384;DHT22;14851;51.166;4.760;2023-11-22T10:25:48;5.30;99.90
27384;DHT22;14851;51.166;4.760;2023-11-22T10:28:19;5.30;99.90
27384;DHT22;14851;51.166;4.760;2023-11-22T10:30:49;5.30;99.90
27384;DHT22;14851;51.166;4.760;2023-11-22T10:33:16;5.40;99.90
27384;DHT22;14851;51.166;4.760;2023-11-22T10:35:51;5.40;99.90
27384;DHT22;14851;51.166;4.760;2023-11-22T10:38:19;5.40;99.90
27384;DHT22;14851;51.166;4.760;2023-11-22T10:40:46;5.30;99.90
27384;DHT22;14851;51.166;4.760;2023-11-22T10:43:15;5.40;99.90
27384;DHT22;14851;51.166;4.760;2023-11-22T10:45:43;5.40;99.90
27384;DHT22;14851;51.166;4.760;2023-11-22T10:48:15;5.40;99.90
27384;DHT22;14851;51.166;4.760;2023-11-22T10:50:43;5.40;99.90
27384;DHT22;14851;51.166;4.760;2023-11-22T10:53:15;5.40;99.90
27384;DHT22;14851;51.166;4.760;2023-11-22T10:55:42;5.50;99.90
27384;DHT22;14851;51.166;4.760;2023-11-22T10:58:11;5.50;99.90
27384;DHT22;14851;51.166;4.760;2023-11-22T11:00:41;5.50;99.90
27384;DHT22;14851;51.166;4.760;2023-11-22T11:03:20;5.50;99.90
27384;DHT22;14851;51.166;4.760;2023-11-22T11:05:54;5.50;99.90
27384;DHT22;14851;51.166;4.760;2023-11-22T11:08:25;5.50;99.90
27384;DHT22;14851;51.166;4.760;2023-11-22T11:10:53;5.50;99.90
27384;DHT22;14851;51.166;4.760;2023-11-22T11:13:22;5.60;99.90
27384;DHT22;14851;51.166;4.760;2023-11-22T11:15:52;5.60;99.90
27384;DHT22;14851;51.166;4.760;2023-11-22T11:18:20;5.60;99.90
27384;DHT22;14851;51.166;4.760;2023-11-22T11:20:56;5.60;99.90
27384;DHT22;14851;51.166;4.760;2023-11-22T11:23:23;5.60;99.90
27384;DHT22;14851;51.166;4.760;2023-11-22T11:25:59;5.60;99.90
27384;DHT22;14851;51.166;4.760;2023-11-22T11:28:46;5.60;99.90
27384;DHT22;14851;51.166;4.760;2023-11-22T11:31:13;5.60;99.90
27384;DHT22;14851;51.166;4.760;2023-11-22T11:36:26;5.50;99.90
27384;DHT22;14851;51.166;4.760;2023-11-22T11:38:53;5.50;99.90
27384;DHT22;14851;51.166;4.760;2023-11-22T11:41:27;5.50;99.90
27384;DHT22;14851;51.166;4.760;2023-11-22T11:43:56;5.60;99.90
27384;DHT22;14851;51.166;4.760;2023-11-22T11:46:23;5.60;99.90
27384;DHT22;14851;51.166;4.760;2023-11-22T11:48:50;5.60;99.90
27384;DHT22;14851;51.166;4.760;2023-11-22T11:51:18;5.60;99.90
27384;DHT22;14851;51.166;4.760;2023-11-22T11:53:47;5.60;99.90
27384;DHT22;14851;51.166;4.760;2023-11-22T11:56:15;5.70;99.90
27384;DHT22;14851;51.166;4.760;2023-11-22T11:58:44;5.80;99.90
27384;DHT22;14851;51.166;4.760;2023-11-22T12:01:14;5.80;99.90
27384;DHT22;14851;51.166;4.760;2023-11-22T12:03:45;5.80;99.90
27384;DHT22;14851;51.166;4.760;2023-11-22T12:06:15;5.80;99.90
27384;DHT22;14851;51.166;4.760;2023-11-22T12:08:44;5.80;99.90
27384;DHT22;14851;51.166;4.760;2023-11-22T12:11:10;5.80;99.90
27384;DHT22;14851;51.166;4.760;2023-11-22T12:13:39;5.80;99.90
27384;DHT22;14851;51.166;4.760;2023-11-22T12:16:10;5.90;99.90
27384;DHT22;14851;51.166;4.760;2023-11-22T12:18:43;5.90;99.90
27384;DHT22;14851;51.166;4.760;2023-11-22T12:21:09;5.90;99.90
27384;DHT22;14851;51.166;4.760;2023-11-22T12:23:42;5.90;99.90
27384;DHT22;14851;51.166;4.760;2023-11-22T12:26:13;5.80;99.90
27384;DHT22;14851;51.166;4.760;2023-11-22T12:28:45;5.80;99.90
27384;DHT22;14851;51.166;4.760;2023-11-22T12:31:13;5.80;99.90
27384;DHT22;14851;51.166;4.760;2023-11-22T12:33:43;5.80;99.90
27384;DHT22;14851;51.166;4.760;2023-11-22T12:36:11;5.70;99.90
27384;DHT22;14851;51.166;4.760;2023-11-22T12:38:41;5.70;99.90
27384;DHT22;14851;51.166;4.760;2023-11-22T12:41:07;5.70;99.90
27384;DHT22;14851;51.166;4.760;2023-11-22T12:43:35;5.70;99.90
27384;DHT22;14851;51.166;4.760;2023-11-22T12:46:07;5.70;99.90
27384;DHT22;14851;51.166;4.760;2023-11-22T12:48:42;5.80;99.90
27384;DHT22;14851;51.166;4.760;2023-11-22T12:51:17;5.90;99.90
27384;DHT22;14851;51.166;4.760;2023-11-22T12:53:49;5.90;99.90
27384;DHT22;14851;51.166;4.760;2023-11-22T12:56:15;5.90;99.90
27384;DHT22;14851;51.166;4.760;2023-11-22T12:58:41;6.00;99.90
27384;DHT22;14851;51.166;4.760;2023-11-22T13:01:10;6.10;99.90
27384;DHT22;14851;51.166;4.760;2023-11-22T13:03:36;6.00;99.90
27384;DHT22;14851;51.166;4.760;2023-11-22T13:06:02;6.00;99.90
27384;DHT22;14851;51.166;4.760;2023-11-22T13:08:30;6.00;99.90
27384;DHT22;14851;51.166;4.760;2023-11-22T13:10:57;6.00;99.90
27384;DHT22;14851;51.166;4.760;2023-11-22T13:13:24;6.00;99.90
27384;DHT22;14851;51.166;4.760;2023-11-22T13:15:52;6.00;99.90
27384;DHT22;14851;51.166;4.760;2023-11-22T13:18:20;6.00;99.90
27384;DHT22;14851;51.166;4.760;2023-11-22T13:20:52;6.00;99.90
27384;DHT22;14851;51.166;4.760;2023-11-22T13:23:18;6.00;99.90
27384;DHT22;14851;51.166;4.760;2023-11-22T13:25:44;6.00;99.90
27384;DHT22;14851;51.166;4.760;2023-11-22T13:28:11;6.00;99.90
27384;DHT22;14851;51.166;4.760;2023-11-22T13:30:39;6.10;99.90
27384;DHT22;14851;51.166;4.760;2023-11-22T13:33:05;6.10;99.90
27384;DHT22;14851;51.166;4.760;2023-11-22T13:35:32;6.20;99.90
27384;DHT22;14851;51.166;4.760;2023-11-22T13:38:06;6.20;99.90
27384;DHT22;14851;51.166;4.760;2023-11-22T13:40:36;6.20;99.90
27384;DHT22;14851;51.166;4.760;2023-11-22T13:43:06;6.20;99.90
27384;DHT22;14851;51.166;4.760;2023-11-22T13:45:36;6.30;99.90
27384;DHT22;14851;51.166;4.760;2023-11-22T13:48:04;6.30;99.90
27384;DHT22;14851;51.166;4.760;2023-11-22T13:50:32;6.30;99.90
27384;DHT22;14851;51.166;4.760;2023-11-22T13:52:59;6.30;99.90
27384;DHT22;14851;51.166;4.760;2023-11-22T13:55:27;6.30;99.90
27384;DHT22;14851;51.166;4.760;2023-11-22T13:57:56;6.20;99.90
27384;DHT22;14851;51.166;4.760;2023-11-22T14:00:24;6.30;99.90
27384;DHT22;14851;51.166;4.760;2023-11-22T14:02:56;6.30;99.90
27384;DHT22;14851;51.166;4.760;2023-11-22T14:05:23;6.30;99.90
27384;DHT22;14851;51.166;4.760;2023-11-22T14:07:49;6.30;99.90
27384;DHT22;14851;51.166;4.760;2023-11-22T14:10:18;6.30;99.90
27384;DHT22;14851;51.166;4.760;2023-11-22T14:12:48;6.30;99.90
27384;DHT22;14851;51.166;4.760;2023-11-22T14:15:18;6.30;99.90
27384;DHT22;14851;51.166;4.760;2023-11-22T14:17:47;6.40;99.90
27384;DHT22;14851;51.166;4.760;2023-11-22T14:20:18;6.40;99.90
27384;DHT22;14851;51.166;4.760;2023-11-22T14:22:46;6.40;99.90
27384;DHT22;14851;51.166;4.760;2023-11-22T14:25:15;6.30;99.90
27384;DHT22;14851;51.166;4.760;2023-11-22T14:27:46;6.30;99.90
27384;DHT22;14851;51.166;4.760;2023-11-22T14:30:13;6.30;99.90
27384;DHT22;14851;51.166;4.760;2023-11-22T14:32:43;6.40;99.90
27384;DHT22;14851;51.166;4.760;2023-11-22T14:35:10;6.40;99.90
27384;DHT22;14851;51.166;4.760;2023-11-22T14:37:36;6.40;99.90
27384;DHT22;14851;51.166;4.760;2023-11-22T14:40:08;6.40;99.90
27384;DHT22;14851;51.166;4.760;2023-11-22T14:42:41;6.40;99.90
27384;DHT22;14851;51.166;4.760;2023-11-22T14:45:08;6.50;99.90
27384;DHT22;14851;51.166;4.760;2023-11-22T14:47:35;6.40;99.90
27384;DHT22;14851;51.166;4.760;2023-11-22T14:50:03;6.40;99.90
27384;DHT22;14851;51.166;4.760;2023-11-22T14:52:34;6.40;99.90
27384;DHT22;14851;51.166;4.760;2023-11-22T14:55:00;6.40;99.90
27384;DHT22;14851;51.166;4.760;2023-11-22T14:57:27;6.40;99.90
27384;DHT22;14851;51.166;4.760;2023-11-22T14:59:53;6.40;99.90
27384;DHT22;14851;51.166;4.760;2023-11-22T15:02:19;6.40;99.90
27384;DHT22;14851;51.166;4.760;2023-11-22T15:04:45;6.40;99.90
27384;DHT22;14851;51.166;4.760;2023-11-22T15:07:12;6.40;99.90
27384;DHT22;14851;51.166;4.760;2023-11-22T15:09:41;6.40;99.90
27384;DHT22;14851;51.166;4.760;2023-11-22T15:12:07;6.40;99.90
27384;DHT22;14851;51.166;4.760;2023-11-22T15:14:34;6.40;99.90
27384;DHT22;14851;51.166;4.760;2023-11-22T15:17:01;6.40;99.90
27384;DHT22;14851;51.166;4.760;2023-11-22T15:19:29;6.40;99.90
27384;DHT22;14851;51.166;4.760;2023-11-22T15:21:59;6.40;99.90
27384;DHT22;14851;51.166;4.760;2023-11-22T15:24:25;6.40;99.90
27384;DHT22;14851;51.166;4.760;2023-11-22T15:26:57;6.40;99.90
27384;DHT22;14851;51.166;4.760;2023-11-22T15:29:24;6.40;99.90
27384;DHT22;14851;51.166;4.760;2023-11-22T15:31:51;6.40;99.90
27384;DHT22;14851;51.166;4.760;2023-11-22T15:34:17;6.40;99.90
27384;DHT22;14851;51.166;4.760;2023-11-22T15:36:44;6.40;99.90
27384;DHT22;14851;51.166;4.760;2023-11-22T15:39:13;6.40;99.90
27384;DHT22;14851;51.166;4.760;2023-11-22T15:41:41;6.40;99.90
27384;DHT22;14851;51.166;4.760;2023-11-22T15:44:09;6.40;99.90
27384;DHT22;14851;51.166;4.760;2023-11-22T15:46:35;6.50;99.90
27384;DHT22;14851;51.166;4.760;2023-11-22T15:49:02;6.50;99.90
27384;DHT22;14851;51.166;4.760;2023-11-22T15:51:29;6.40;99.90